sensor_id;sensor_type;location;lat;lon;timestamp;temperature;humidity
59572;DHT22;74587;45.880;11.484;2024-01-10T00:01:59;0.60;99.90
59572;DHT22;74587;45.880;11.484;2024-01-10T00:04:25;0.60;99.90
59572;DHT22;74587;45.880;11.484;2024-01-10T00:06:51;0.70;99.90
59572;DHT22;74587;45.880;11.484;2024-01-10T00:09:17;0.80;99.90
59572;DHT22;74587;45.880;11.484;2024-01-10T00:11:44;0.60;99.90
59572;DHT22;74587;45.880;11.484;2024-01-10T00:14:09;0.30;99.90
59572;DHT22;74587;45.880;11.484;2024-01-10T00:16:36;0.20;99.90
59572;DHT22;74587;45.880;11.484;2024-01-10T00:19:01;0.10;99.90
59572;DHT22;74587;45.880;11.484;2024-01-10T00:21:27;0.30;99.90
59572;DHT22;74587;45.880;11.484;2024-01-10T00:23:53;0.50;99.90
59572;DHT22;74587;45.880;11.484;2024-01-10T00:26:19;0.50;99.90
59572;DHT22;74587;45.880;11.484;2024-01-10T00:28:44;0.40;99.90
59572;DHT22;74587;45.880;11.484;2024-01-10T00:31:13;0.40;99.90
59572;DHT22;74587;45.880;11.484;2024-01-10T00:33:39;0.50;99.90
59572;DHT22;74587;45.880;11.484;2024-01-10T00:36:06;0.20;99.90
59572;DHT22;74587;45.880;11.484;2024-01-10T00:38:32;0.10;99.90
59572;DHT22;74587;45.880;11.484;2024-01-10T00:40:58;-3276.50;99.90
59572;DHT22;74587;45.880;11.484;2024-01-10T00:43:24;0.00;99.90
59572;DHT22;74587;45.880;11.484;2024-01-10T00:45:50;-3276.40;99.90
59572;DHT22;74587;45.880;11.484;2024-01-10T00:48:15;-3276.60;99.90
59572;DHT22;74587;45.880;11.484;2024-01-10T00:50:43;-3276.30;99.90
59572;DHT22;74587;45.880;11.484;2024-01-10T00:53:10;-3276.50;99.90
59572;DHT22;74587;45.880;11.484;2024-01-10T00:55:35;-3276.40;99.90
59572;DHT22;74587;45.880;11.484;2024-01-10T00:58:01;-3276.60;99.90
59572;DHT22;74587;45.880;11.484;2024-01-10T01:00:27;-3276.60;99.90
59572;DHT22;74587;45.880;11.484;2024-01-10T01:02:53;-3276.40;99.90
59572;DHT22;74587;45.880;11.484;2024-01-10T01:05:19;-3276.40;99.90
59572;DHT22;74587;45.880;11.484;2024-01-10T01:07:44;-3276.30;99.90
59572;DHT22;74587;45.880;11.484;2024-01-10T01:10:10;-3276.10;99.90
59572;DHT22;74587;45.880;11.484;2024-01-10T01:12:36;-3276.10;99.90
59572;DHT22;74587;45.880;11.484;2024-01-10T01:15:02;-3275.90;99.90
59572;DHT22;74587;45.880;11.484;2024-01-10T01:17:28;-3276.10;99.90
59572;DHT22;74587;45.880;11.484;2024-01-10T01:19:54;-3275.90;99.90
59572;DHT22;74587;45.880;11.484;2024-01-10T01:22:19;-3276.00;99.90
59572;DHT22;74587;45.880;11.484;2024-01-10T01:24:45;-3275.90;99.90
59572;DHT22;74587;45.880;11.484;2024-01-10T01:27:12;-3275.70;99.90
59572;DHT22;74587;45.880;11.484;2024-01-10T01:29:37;-3276.20;99.90
59572;DHT22;74587;45.880;11.484;2024-01-10T01:32:03;-3276.20;99.90
59572;DHT22;74587;45.880;11.484;2024-01-10T01:34:29;-3276.40;99.90
59572;DHT22;74587;45.880;11.484;2024-01-10T01:36:55;-3276.40;99.90
59572;DHT22;74587;45.880;11.484;2024-01-10T01:39:21;-3276.20;98.80
59572;DHT22;74587;45.880;11.484;2024-01-10T01:41:47;-3276.40;98.90
59572;DHT22;74587;45.880;11.484;2024-01-10T01:44:13;-3276.60;98.30
59572;DHT22;74587;45.880;11.484;2024-01-10T01:46:39;-3276.70;96.50
59572;DHT22;74587;45.880;11.484;2024-01-10T01:49:10;-3276.60;94.00
59572;DHT22;74587;45.880;11.484;2024-01-10T01:51:36;-3276.60;93.10
59572;DHT22;74587;45.880;11.484;2024-01-10T01:54:06;0.00;92.30
59572;DHT22;74587;45.880;11.484;2024-01-10T01:56:34;0.00;92.30
59572;DHT22;74587;45.880;11.484;2024-01-10T01:59:01;0.00;92.10
59572;DHT22;74587;45.880;11.484;2024-01-10T02:01:27;0.10;91.40
59572;DHT22;74587;45.880;11.484;2024-01-10T02:03:53;0.10;90.60
59572;DHT22;74587;45.880;11.484;2024-01-10T02:06:20;0.00;89.60
59572;DHT22;74587;45.880;11.484;2024-01-10T02:08:46;-3276.70;88.80
59572;DHT22;74587;45.880;11.484;2024-01-10T02:11:12;-3276.60;89.20
59572;DHT22;74587;45.880;11.484;2024-01-10T02:13:38;-3276.60;89.80
59572;DHT22;74587;45.880;11.484;2024-01-10T02:16:04;-3276.60;89.10
59572;DHT22;74587;45.880;11.484;2024-01-10T02:18:30;-3276.70;89.30
59572;DHT22;74587;45.880;11.484;2024-01-10T02:20:56;-3276.70;88.60
59572;DHT22;74587;45.880;11.484;2024-01-10T02:23:23;-3276.70;89.20
59572;DHT22;74587;45.880;11.484;2024-01-10T02:25:49;0.00;90.00
59572;DHT22;74587;45.880;11.484;2024-01-10T02:28:15;0.00;88.30
59572;DHT22;74587;45.880;11.484;2024-01-10T02:30:41;0.10;88.00
59572;DHT22;74587;45.880;11.484;2024-01-10T02:33:06;0.00;87.60
59572;DHT22;74587;45.880;11.484;2024-01-10T02:35:32;0.00;87.60
59572;DHT22;74587;45.880;11.484;2024-01-10T02:37:59;-3276.70;87.50
59572;DHT22;74587;45.880;11.484;2024-01-10T02:40:25;-3276.70;87.60
59572;DHT22;74587;45.880;11.484;2024-01-10T02:42:51;0.00;87.40
59572;DHT22;74587;45.880;11.484;2024-01-10T02:45:17;-3276.60;87.30
59572;DHT22;74587;45.880;11.484;2024-01-10T02:47:43;-3276.70;87.40
59572;DHT22;74587;45.880;11.484;2024-01-10T02:50:09;-3276.30;87.60
59572;DHT22;74587;45.880;11.484;2024-01-10T02:52:35;-3276.40;88.80
59572;DHT22;74587;45.880;11.484;2024-01-10T02:55:00;-3276.40;90.50
59572;DHT22;74587;45.880;11.484;2024-01-10T02:57:26;-3276.40;90.50
59572;DHT22;74587;45.880;11.484;2024-01-10T02:59:52;-3276.30;91.10
59572;DHT22;74587;45.880;11.484;2024-01-10T03:02:17;-3276.30;90.50
59572;DHT22;74587;45.880;11.484;2024-01-10T03:04:43;-3276.30;91.30
59572;DHT22;74587;45.880;11.484;2024-01-10T03:07:10;-3276.20;90.70
59572;DHT22;74587;45.880;11.484;2024-01-10T03:09:36;-3276.30;91.50
59572;DHT22;74587;45.880;11.484;2024-01-10T03:12:02;-3276.10;92.60
59572;DHT22;74587;45.880;11.484;2024-01-10T03:14:28;-3276.10;93.70
59572;DHT22;74587;45.880;11.484;2024-01-10T03:16:53;-3276.10;94.80
59572;DHT22;74587;45.880;11.484;2024-01-10T03:19:19;-3276.20;96.80
59572;DHT22;74587;45.880;11.484;2024-01-10T03:21:45;-3276.40;96.10
59572;DHT22;74587;45.880;11.484;2024-01-10T03:24:11;-3276.40;95.70
59572;DHT22;74587;45.880;11.484;2024-01-10T03:26:36;-3276.50;94.50
59572;DHT22;74587;45.880;11.484;2024-01-10T03:29:02;-3276.40;94.40
59572;DHT22;74587;45.880;11.484;2024-01-10T03:31:29;-3276.70;93.20
59572;DHT22;74587;45.880;11.484;2024-01-10T03:33:56;-3276.50;92.20
59572;DHT22;74587;45.880;11.484;2024-01-10T03:36:22;-3276.50;91.40
59572;DHT22;74587;45.880;11.484;2024-01-10T03:38:48;-3276.60;92.30
59572;DHT22;74587;45.880;11.484;2024-01-10T03:41:18;-3276.50;95.00
59572;DHT22;74587;45.880;11.484;2024-01-10T03:43:44;-3276.60;95.60
59572;DHT22;74587;45.880;11.484;2024-01-10T03:46:11;-3276.40;94.50
59572;DHT22;74587;45.880;11.484;2024-01-10T03:48:37;-3276.50;94.00
59572;DHT22;74587;45.880;11.484;2024-01-10T03:51:04;-3276.60;93.60
59572;DHT22;74587;45.880;11.484;2024-01-10T03:53:30;-3276.70;92.10
59572;DHT22;74587;45.880;11.484;2024-01-10T03:55:56;0.00;92.60
59572;DHT22;74587;45.880;11.484;2024-01-10T03:58:23;0.00;91.50
59572;DHT22;74587;45.880;11.484;2024-01-10T04:03:58;-3276.70;89.90
59572;DHT22;74587;45.880;11.484;2024-01-10T04:06:24;-3276.60;90.60
59572;DHT22;74587;45.880;11.484;2024-01-10T04:08:49;0.00;91.10
59572;DHT22;74587;45.880;11.484;2024-01-10T04:11:15;0.00;91.80
59572;DHT22;74587;45.880;11.484;2024-01-10T04:13:41;0.00;92.40
59572;DHT22;74587;45.880;11.484;2024-01-10T04:16:07;0.10;91.60
59572;DHT22;74587;45.880;11.484;2024-01-10T04:18:32;-3276.70;90.70
59572;DHT22;74587;45.880;11.484;2024-01-10T04:20:58;-3276.70;91.80
59572;DHT22;74587;45.880;11.484;2024-01-10T04:23:24;0.10;91.70
59572;DHT22;74587;45.880;11.484;2024-01-10T04:25:49;0.00;91.20
59572;DHT22;74587;45.880;11.484;2024-01-10T04:28:15;0.30;90.10
59572;DHT22;74587;45.880;11.484;2024-01-10T04:30:41;0.10;89.90
59572;DHT22;74587;45.880;11.484;2024-01-10T04:33:07;0.00;90.20
59572;DHT22;74587;45.880;11.484;2024-01-10T04:35:32;0.00;90.20
59572;DHT22;74587;45.880;11.484;2024-01-10T04:37:58;-3276.60;90.70
59572;DHT22;74587;45.880;11.484;2024-01-10T04:40:24;-3276.50;91.50
59572;DHT22;74587;45.880;11.484;2024-01-10T04:42:49;0.00;93.00
59572;DHT22;74587;45.880;11.484;2024-01-10T04:45:16;0.00;93.40
59572;DHT22;74587;45.880;11.484;2024-01-10T04:47:41;0.00;93.10
59572;DHT22;74587;45.880;11.484;2024-01-10T04:50:08;-3276.70;92.70
59572;DHT22;74587;45.880;11.484;2024-01-10T04:52:33;0.10;92.70
59572;DHT22;74587;45.880;11.484;2024-01-10T04:54:59;0.00;91.70
59572;DHT22;74587;45.880;11.484;2024-01-10T04:57:25;0.00;91.60
59572;DHT22;74587;45.880;11.484;2024-01-10T04:59:50;0.10;91.80
59572;DHT22;74587;45.880;11.484;2024-01-10T05:02:16;0.10;91.80
59572;DHT22;74587;45.880;11.484;2024-01-10T05:04:42;0.10;91.30
59572;DHT22;74587;45.880;11.484;2024-01-10T05:07:08;0.00;90.90
59572;DHT22;74587;45.880;11.484;2024-01-10T05:09:33;0.00;90.50
59572;DHT22;74587;45.880;11.484;2024-01-10T05:11:59;0.10;90.80
59572;DHT22;74587;45.880;11.484;2024-01-10T05:14:25;0.00;91.40
59572;DHT22;74587;45.880;11.484;2024-01-10T05:16:50;-3276.70;91.70
59572;DHT22;74587;45.880;11.484;2024-01-10T05:19:17;0.00;92.90
59572;DHT22;74587;45.880;11.484;2024-01-10T05:21:43;-3276.70;94.10
59572;DHT22;74587;45.880;11.484;2024-01-10T05:24:09;0.00;95.00
59572;DHT22;74587;45.880;11.484;2024-01-10T05:26:34;0.20;95.10
59572;DHT22;74587;45.880;11.484;2024-01-10T05:29:01;0.00;94.40
59572;DHT22;74587;45.880;11.484;2024-01-10T05:31:26;0.00;94.70
59572;DHT22;74587;45.880;11.484;2024-01-10T05:33:52;0.10;95.40
59572;DHT22;74587;45.880;11.484;2024-01-10T05:36:21;0.20;94.40
59572;DHT22;74587;45.880;11.484;2024-01-10T05:38:48;0.30;93.30
59572;DHT22;74587;45.880;11.484;2024-01-10T05:41:13;0.30;92.40
59572;DHT22;74587;45.880;11.484;2024-01-10T05:43:40;0.40;91.90
59572;DHT22;74587;45.880;11.484;2024-01-10T05:46:06;0.40;92.30
59572;DHT22;74587;45.880;11.484;2024-01-10T05:48:32;0.50;92.00
59572;DHT22;74587;45.880;11.484;2024-01-10T05:50:57;0.30;91.80
59572;DHT22;74587;45.880;11.484;2024-01-10T05:53:24;0.10;92.30
59572;DHT22;74587;45.880;11.484;2024-01-10T05:55:50;0.00;93.10
59572;DHT22;74587;45.880;11.484;2024-01-10T05:58:16;0.00;94.40
59572;DHT22;74587;45.880;11.484;2024-01-10T06:00:42;0.00;95.00
59572;DHT22;74587;45.880;11.484;2024-01-10T06:03:08;0.30;94.20
59572;DHT22;74587;45.880;11.484;2024-01-10T06:05:34;0.20;93.90
59572;DHT22;74587;45.880;11.484;2024-01-10T06:08:00;0.30;92.30
59572;DHT22;74587;45.880;11.484;2024-01-10T06:10:28;0.20;91.70
59572;DHT22;74587;45.880;11.484;2024-01-10T06:12:54;0.20;91.70
59572;DHT22;74587;45.880;11.484;2024-01-10T06:15:20;0.20;91.60
59572;DHT22;74587;45.880;11.484;2024-01-10T06:17:46;0.20;93.20
59572;DHT22;74587;45.880;11.484;2024-01-10T06:20:12;0.10;94.30
59572;DHT22;74587;45.880;11.484;2024-01-10T06:22:39;0.00;95.10
59572;DHT22;74587;45.880;11.484;2024-01-10T06:25:05;0.20;95.30
59572;DHT22;74587;45.880;11.484;2024-01-10T06:27:31;0.20;95.40
59572;DHT22;74587;45.880;11.484;2024-01-10T06:29:56;0.10;94.50
59572;DHT22;74587;45.880;11.484;2024-01-10T06:32:22;0.20;94.50
59572;DHT22;74587;45.880;11.484;2024-01-10T06:34:48;0.40;94.10
59572;DHT22;74587;45.880;11.484;2024-01-10T06:37:13;0.40;92.90
59572;DHT22;74587;45.880;11.484;2024-01-10T06:39:39;0.50;92.30
59572;DHT22;74587;45.880;11.484;2024-01-10T06:42:06;0.50;91.60
59572;DHT22;74587;45.880;11.484;2024-01-10T06:44:33;0.40;91.20
59572;DHT22;74587;45.880;11.484;2024-01-10T06:46:59;0.30;90.90
59572;DHT22;74587;45.880;11.484;2024-01-10T06:49:25;0.20;92.00
59572;DHT22;74587;45.880;11.484;2024-01-10T06:51:52;0.40;92.00
59572;DHT22;74587;45.880;11.484;2024-01-10T06:54:18;0.30;91.80
59572;DHT22;74587;45.880;11.484;2024-01-10T06:56:44;0.40;91.90
59572;DHT22;74587;45.880;11.484;2024-01-10T06:59:10;0.40;91.20
59572;DHT22;74587;45.880;11.484;2024-01-10T07:01:36;0.40;91.50
59572;DHT22;74587;45.880;11.484;2024-01-10T07:04:02;0.60;91.00
59572;DHT22;74587;45.880;11.484;2024-01-10T07:06:30;0.30;90.30
59572;DHT22;74587;45.880;11.484;2024-01-10T07:08:56;0.40;90.70
59572;DHT22;74587;45.880;11.484;2024-01-10T07:11:22;0.20;91.30
59572;DHT22;74587;45.880;11.484;2024-01-10T07:13:47;0.40;91.50
59572;DHT22;74587;45.880;11.484;2024-01-10T07:16:13;0.40;91.50
59572;DHT22;74587;45.880;11.484;2024-01-10T07:18:43;0.40;91.70
59572;DHT22;74587;45.880;11.484;2024-01-10T07:21:09;0.40;91.80
59572;DHT22;74587;45.880;11.484;2024-01-10T07:23:36;0.40;90.60
59572;DHT22;74587;45.880;11.484;2024-01-10T07:26:06;0.50;90.50
59572;DHT22;74587;45.880;11.484;2024-01-10T07:28:31;0.60;90.70
59572;DHT22;74587;45.880;11.484;2024-01-10T07:30:58;0.60;90.00
59572;DHT22;74587;45.880;11.484;2024-01-10T07:33:23;0.50;90.30
59572;DHT22;74587;45.880;11.484;2024-01-10T07:35:49;0.30;91.00
59572;DHT22;74587;45.880;11.484;2024-01-10T07:38:15;0.50;92.00
59572;DHT22;74587;45.880;11.484;2024-01-10T07:40:40;0.50;92.60
59572;DHT22;74587;45.880;11.484;2024-01-10T07:43:06;0.70;92.60
59572;DHT22;74587;45.880;11.484;2024-01-10T07:45:32;0.70;92.00
59572;DHT22;74587;45.880;11.484;2024-01-10T07:48:01;0.90;91.90
59572;DHT22;74587;45.880;11.484;2024-01-10T07:50:27;0.70;91.20
59572;DHT22;74587;45.880;11.484;2024-01-10T07:52:53;0.90;91.40
59572;DHT22;74587;45.880;11.484;2024-01-10T07:55:19;0.80;90.70
59572;DHT22;74587;45.880;11.484;2024-01-10T07:57:44;1.00;91.10
59572;DHT22;74587;45.880;11.484;2024-01-10T08:00:10;1.10;91.20
59572;DHT22;74587;45.880;11.484;2024-01-10T08:02:37;0.80;90.30
59572;DHT22;74587;45.880;11.484;2024-01-10T08:05:04;1.00;90.70
59572;DHT22;74587;45.880;11.484;2024-01-10T08:07:33;1.00;91.00
59572;DHT22;74587;45.880;11.484;2024-01-10T08:10:00;1.10;91.30
59572;DHT22;74587;45.880;11.484;2024-01-10T08:12:25;1.10;91.10
59572;DHT22;74587;45.880;11.484;2024-01-10T08:14:51;1.00;90.50
59572;DHT22;74587;45.880;11.484;2024-01-10T08:17:17;1.00;89.90
59572;DHT22;74587;45.880;11.484;2024-01-10T08:19:43;1.20;90.70
59572;DHT22;74587;45.880;11.484;2024-01-10T08:22:09;1.40;90.20
59572;DHT22;74587;45.880;11.484;2024-01-10T08:24:34;1.50;89.40
59572;DHT22;74587;45.880;11.484;2024-01-10T08:27:00;1.60;88.20
59572;DHT22;74587;45.880;11.484;2024-01-10T08:29:26;1.70;87.60
59572;DHT22;74587;45.880;11.484;2024-01-10T08:31:57;1.80;87.00
59572;DHT22;74587;45.880;11.484;2024-01-10T08:34:23;1.80;86.50
59572;DHT22;74587;45.880;11.484;2024-01-10T08:36:49;1.90;86.10
59572;DHT22;74587;45.880;11.484;2024-01-10T08:39:16;1.80;85.90
59572;DHT22;74587;45.880;11.484;2024-01-10T08:41:42;1.80;86.10
59572;DHT22;74587;45.880;11.484;2024-01-10T08:44:12;1.80;86.10
59572;DHT22;74587;45.880;11.484;2024-01-10T08:46:38;1.90;86.00
59572;DHT22;74587;45.880;11.484;2024-01-10T08:49:04;1.90;85.90
59572;DHT22;74587;45.880;11.484;2024-01-10T08:51:30;1.80;85.60
59572;DHT22;74587;45.880;11.484;2024-01-10T08:53:56;1.90;84.50
59572;DHT22;74587;45.880;11.484;2024-01-10T08:56:22;1.80;85.40
59572;DHT22;74587;45.880;11.484;2024-01-10T08:58:48;1.70;85.80
59572;DHT22;74587;45.880;11.484;2024-01-10T09:01:14;1.80;85.80
59572;DHT22;74587;45.880;11.484;2024-01-10T09:03:40;1.80;85.60
59572;DHT22;74587;45.880;11.484;2024-01-10T09:06:06;1.70;85.80
59572;DHT22;74587;45.880;11.484;2024-01-10T09:08:34;1.80;86.00
59572;DHT22;74587;45.880;11.484;2024-01-10T09:10:59;1.80;86.10
59572;DHT22;74587;45.880;11.484;2024-01-10T09:13:25;1.90;86.30
59572;DHT22;74587;45.880;11.484;2024-01-10T09:15:51;2.00;85.70
59572;DHT22;74587;45.880;11.484;2024-01-10T09:18:17;2.10;85.40
59572;DHT22;74587;45.880;11.484;2024-01-10T09:20:43;1.90;85.40
59572;DHT22;74587;45.880;11.484;2024-01-10T09:23:09;2.00;85.40
59572;DHT22;74587;45.880;11.484;2024-01-10T09:25:36;2.30;85.10
59572;DHT22;74587;45.880;11.484;2024-01-10T09:28:04;2.10;85.00
59572;DHT22;74587;45.880;11.484;2024-01-10T09:30:30;2.30;84.80
59572;DHT22;74587;45.880;11.484;2024-01-10T09:32:55;2.40;84.70
59572;DHT22;74587;45.880;11.484;2024-01-10T09:35:22;2.40;84.40
59572;DHT22;74587;45.880;11.484;2024-01-10T09:37:48;2.40;84.20
59572;DHT22;74587;45.880;11.484;2024-01-10T09:40:15;2.70;84.00
59572;DHT22;74587;45.880;11.484;2024-01-10T09:42:43;2.70;83.90
59572;DHT22;74587;45.880;11.484;2024-01-10T09:45:10;2.60;83.90
59572;DHT22;74587;45.880;11.484;2024-01-10T09:47:39;2.70;83.90
59572;DHT22;74587;45.880;11.484;2024-01-10T09:50:07;2.80;83.70
59572;DHT22;74587;45.880;11.484;2024-01-10T09:52:39;2.90;83.30
59572;DHT22;74587;45.880;11.484;2024-01-10T09:55:07;3.00;82.90
59572;DHT22;74587;45.880;11.484;2024-01-10T09:57:34;2.90;82.90
59572;DHT22;74587;45.880;11.484;2024-01-10T10:00:02;3.00;82.70
59572;DHT22;74587;45.880;11.484;2024-01-10T10:02:32;3.00;82.40
59572;DHT22;74587;45.880;11.484;2024-01-10T10:05:17;2.90;82.50
59572;DHT22;74587;45.880;11.484;2024-01-10T10:07:47;2.90;82.20
59572;DHT22;74587;45.880;11.484;2024-01-10T10:10:14;3.00;82.40
59572;DHT22;74587;45.880;11.484;2024-01-10T10:12:59;3.00;82.40
59572;DHT22;74587;45.880;11.484;2024-01-10T10:15:25;3.10;82.30
59572;DHT22;74587;45.880;11.484;2024-01-10T10:17:54;3.30;81.80
59572;DHT22;74587;45.880;11.484;2024-01-10T10:20:30;3.00;81.70
59572;DHT22;74587;45.880;11.484;2024-01-10T10:23:06;3.00;81.70
59572;DHT22;74587;45.880;11.484;2024-01-10T10:25:33;3.00;82.00
59572;DHT22;74587;45.880;11.484;2024-01-10T10:28:00;3.10;82.30
59572;DHT22;74587;45.880;11.484;2024-01-10T10:30:26;3.00;82.50
59572;DHT22;74587;45.880;11.484;2024-01-10T10:32:52;3.00;82.60
59572;DHT22;74587;45.880;11.484;2024-01-10T10:35:19;2.80;82.60
59572;DHT22;74587;45.880;11.484;2024-01-10T10:37:51;3.00;82.40
59572;DHT22;74587;45.880;11.484;2024-01-10T10:40:18;3.10;82.30
59572;DHT22;74587;45.880;11.484;2024-01-10T10:43:04;3.30;82.40
59572;DHT22;74587;45.880;11.484;2024-01-10T10:45:31;3.40;82.40
59572;DHT22;74587;45.880;11.484;2024-01-10T10:48:00;3.20;82.50
59572;DHT22;74587;45.880;11.484;2024-01-10T10:50:28;3.40;82.60
59572;DHT22;74587;45.880;11.484;2024-01-10T10:52:59;3.40;82.40
59572;DHT22;74587;45.880;11.484;2024-01-10T10:55:26;3.30;82.20
59572;DHT22;74587;45.880;11.484;2024-01-10T10:57:54;3.60;82.10
59572;DHT22;74587;45.880;11.484;2024-01-10T11:00:22;3.40;82.00
59572;DHT22;74587;45.880;11.484;2024-01-10T11:02:53;3.40;82.00
59572;DHT22;74587;45.880;11.484;2024-01-10T11:05:20;3.30;81.50
59572;DHT22;74587;45.880;11.484;2024-01-10T11:07:47;3.10;81.50
59572;DHT22;74587;45.880;11.484;2024-01-10T11:10:18;2.90;82.30
59572;DHT22;74587;45.880;11.484;2024-01-10T11:24:10;1.90;86.80
59572;DHT22;74587;45.880;11.484;2024-01-10T11:26:39;2.00;86.50
59572;DHT22;74587;45.880;11.484;2024-01-10T11:29:05;2.30;85.90
59572;DHT22;74587;45.880;11.484;2024-01-10T11:31:33;2.50;85.30
59572;DHT22;74587;45.880;11.484;2024-01-10T11:34:02;2.60;84.60
59572;DHT22;74587;45.880;11.484;2024-01-10T11:36:28;2.80;84.40
59572;DHT22;74587;45.880;11.484;2024-01-10T11:39:03;2.80;83.80
59572;DHT22;74587;45.880;11.484;2024-01-10T11:41:31;3.00;83.50
59572;DHT22;74587;45.880;11.484;2024-01-10T11:46:47;3.20;82.60
59572;DHT22;74587;45.880;11.484;2024-01-10T11:49:17;3.20;83.00
59572;DHT22;74587;45.880;11.484;2024-01-10T11:51:46;3.10;82.40
59572;DHT22;74587;45.880;11.484;2024-01-10T11:54:12;2.80;83.10
59572;DHT22;74587;45.880;11.484;2024-01-10T11:56:57;2.90;83.30
59572;DHT22;74587;45.880;11.484;2024-01-10T11:59:23;2.80;83.00
59572;DHT22;74587;45.880;11.484;2024-01-10T12:01:49;2.70;82.70
59572;DHT22;74587;45.880;11.484;2024-01-10T12:04:16;2.70;83.60
59572;DHT22;74587;45.880;11.484;2024-01-10T12:06:42;2.10;84.10
59572;DHT22;74587;45.880;11.484;2024-01-10T12:09:08;2.00;85.40
59572;DHT22;74587;45.880;11.484;2024-01-10T12:11:35;2.20;85.80
59572;DHT22;74587;45.880;11.484;2024-01-10T12:14:01;2.10;86.40
59572;DHT22;74587;45.880;11.484;2024-01-10T12:16:27;2.20;85.70
59572;DHT22;74587;45.880;11.484;2024-01-10T12:18:54;1.80;86.40
59572;DHT22;74587;45.880;11.484;2024-01-10T12:21:20;1.70;87.20
59572;DHT22;74587;45.880;11.484;2024-01-10T12:23:47;1.80;88.30
59572;DHT22;74587;45.880;11.484;2024-01-10T12:26:14;1.70;88.10
59572;DHT22;74587;45.880;11.484;2024-01-10T12:28:40;1.50;87.60
59572;DHT22;74587;45.880;11.484;2024-01-10T12:31:08;2.00;88.10
59572;DHT22;74587;45.880;11.484;2024-01-10T12:33:37;2.30;87.50
59572;DHT22;74587;45.880;11.484;2024-01-10T12:36:11;2.30;86.60
59572;DHT22;74587;45.880;11.484;2024-01-10T12:38:38;2.50;85.20
59572;DHT22;74587;45.880;11.484;2024-01-10T12:41:05;2.20;85.20
59572;DHT22;74587;45.880;11.484;2024-01-10T12:43:35;2.60;85.70
59572;DHT22;74587;45.880;11.484;2024-01-10T12:46:11;2.40;84.80
59572;DHT22;74587;45.880;11.484;2024-01-10T12:48:40;2.30;85.60
59572;DHT22;74587;45.880;11.484;2024-01-10T12:51:08;2.50;85.80
59572;DHT22;74587;45.880;11.484;2024-01-10T12:53:35;2.70;85.40
59572;DHT22;74587;45.880;11.484;2024-01-10T12:56:05;2.90;84.80
59572;DHT22;74587;45.880;11.484;2024-01-10T12:58:32;3.00;84.10
59572;DHT22;74587;45.880;11.484;2024-01-10T13:00:58;2.80;84.60
59572;DHT22;74587;45.880;11.484;2024-01-10T13:03:25;3.00;83.80
59572;DHT22;74587;45.880;11.484;2024-01-10T13:05:51;2.90;83.90
59572;DHT22;74587;45.880;11.484;2024-01-10T13:08:18;3.10;83.90
59572;DHT22;74587;45.880;11.484;2024-01-10T13:10:45;2.90;83.70
59572;DHT22;74587;45.880;11.484;2024-01-10T13:13:11;2.90;83.70
59572;DHT22;74587;45.880;11.484;2024-01-10T13:15:38;2.90;83.60
59572;DHT22;74587;45.880;11.484;2024-01-10T13:18:04;3.00;83.60
59572;DHT22;74587;45.880;11.484;2024-01-10T13:20:30;2.60;83.60
59572;DHT22;74587;45.880;11.484;2024-01-10T13:22:55;2.60;84.00
59572;DHT22;74587;45.880;11.484;2024-01-10T13:25:21;2.30;84.80
59572;DHT22;74587;45.880;11.484;2024-01-10T13:27:50;2.10;85.60
59572;DHT22;74587;45.880;11.484;2024-01-10T13:30:16;1.70;87.30
59572;DHT22;74587;45.880;11.484;2024-01-10T13:32:43;2.00;88.20
59572;DHT22;74587;45.880;11.484;2024-01-10T13:35:09;2.10;88.20
59572;DHT22;74587;45.880;11.484;2024-01-10T13:37:35;2.50;88.00
59572;DHT22;74587;45.880;11.484;2024-01-10T13:40:01;2.70;87.00
59572;DHT22;74587;45.880;11.484;2024-01-10T13:42:31;2.80;85.70
59572;DHT22;74587;45.880;11.484;2024-01-10T13:44:56;2.90;84.50
59572;DHT22;74587;45.880;11.484;2024-01-10T13:47:22;2.70;84.70
59572;DHT22;74587;45.880;11.484;2024-01-10T13:49:48;2.80;84.50
59572;DHT22;74587;45.880;11.484;2024-01-10T13:52:14;3.10;84.20
59572;DHT22;74587;45.880;11.484;2024-01-10T13:54:40;3.10;84.00
59572;DHT22;74587;45.880;11.484;2024-01-10T13:57:06;3.40;83.70
59572;DHT22;74587;45.880;11.484;2024-01-10T13:59:33;3.30;83.60
59572;DHT22;74587;45.880;11.484;2024-01-10T14:01:59;3.00;83.20
59572;DHT22;74587;45.880;11.484;2024-01-10T14:04:24;2.70;83.40
59572;DHT22;74587;45.880;11.484;2024-01-10T14:06:50;2.30;83.70
59572;DHT22;74587;45.880;11.484;2024-01-10T14:09:16;2.10;85.40
59572;DHT22;74587;45.880;11.484;2024-01-10T14:11:43;2.40;86.80
59572;DHT22;74587;45.880;11.484;2024-01-10T14:14:14;2.40;86.10
59572;DHT22;74587;45.880;11.484;2024-01-10T14:16:40;2.10;86.30
59572;DHT22;74587;45.880;11.484;2024-01-10T14:19:06;2.40;86.50
59572;DHT22;74587;45.880;11.484;2024-01-10T14:21:32;2.10;86.60
59572;DHT22;74587;45.880;11.484;2024-01-10T14:23:58;2.00;86.50
59572;DHT22;74587;45.880;11.484;2024-01-10T14:26:24;2.10;87.40
59572;DHT22;74587;45.880;11.484;2024-01-10T14:28:52;2.40;87.10
59572;DHT22;74587;45.880;11.484;2024-01-10T14:31:22;2.40;86.50
59572;DHT22;74587;45.880;11.484;2024-01-10T14:33:48;2.40;85.90
59572;DHT22;74587;45.880;11.484;2024-01-10T14:36:14;2.80;85.50
59572;DHT22;74587;45.880;11.484;2024-01-10T14:38:40;2.70;85.50
59572;DHT22;74587;45.880;11.484;2024-01-10T14:41:09;2.80;85.10
59572;DHT22;74587;45.880;11.484;2024-01-10T14:43:38;2.60;84.30
59572;DHT22;74587;45.880;11.484;2024-01-10T14:46:04;2.80;85.00
59572;DHT22;74587;45.880;11.484;2024-01-10T14:48:31;2.50;85.10
59572;DHT22;74587;45.880;11.484;2024-01-10T14:50:57;2.30;85.40
59572;DHT22;74587;45.880;11.484;2024-01-10T14:53:23;2.50;85.60
59572;DHT22;74587;45.880;11.484;2024-01-10T14:55:49;2.30;85.50
59572;DHT22;74587;45.880;11.484;2024-01-10T14:58:15;2.20;86.10
59572;DHT22;74587;45.880;11.484;2024-01-10T15:00:41;2.20;86.70
59572;DHT22;74587;45.880;11.484;2024-01-10T15:03:08;2.30;86.50
59572;DHT22;74587;45.880;11.484;2024-01-10T15:05:34;2.20;86.40
59572;DHT22;74587;45.880;11.484;2024-01-10T15:08:01;2.10;86.60
59572;DHT22;74587;45.880;11.484;2024-01-10T15:10:27;2.20;87.00
59572;DHT22;74587;45.880;11.484;2024-01-10T15:12:53;2.20;86.90
59572;DHT22;74587;45.880;11.484;2024-01-10T15:15:19;2.30;86.70
59572;DHT22;74587;45.880;11.484;2024-01-10T15:17:45;2.40;86.40
59572;DHT22;74587;45.880;11.484;2024-01-10T15:20:13;2.40;86.30
59572;DHT22;74587;45.880;11.484;2024-01-10T15:22:39;2.40;86.30
59572;DHT22;74587;45.880;11.484;2024-01-10T15:25:06;2.40;85.90
59572;DHT22;74587;45.880;11.484;2024-01-10T15:27:32;2.40;85.90
59572;DHT22;74587;45.880;11.484;2024-01-10T15:29:58;2.40;85.80
59572;DHT22;74587;45.880;11.484;2024-01-10T15:32:24;2.30;85.90
59572;DHT22;74587;45.880;11.484;2024-01-10T15:34:50;2.40;85.90